Huvudsida
METAR-TAF:

METAR-TAF

Flygplatser :

Oljeplattform

Norne Fpso, Norge

latitud: 66-01-48N, longitud: 008-04-48E, höjd: 10 m

Aktuellt väderrapport

Denna rapport gjordes för 35 minuter sedan, klockan 14:20 UTC
Vind 25 kt från nordväst
Temperatur 11°C
Fuktighet 62%
Tryck 1010 hPa
Sikt 10 km eller mer
Få moln på en höjd av 2500 ft

METAR: ENNE 201420Z 32025KT 9999 FEW025 11/04 Q1010 W///S5

Tid: 16:55 (14:55 UTC)

Väderprognos

Denna rapport gjordes för 3 timmar och 55 minuter sedan, klockan 11:00 UTC
Prognos gäller från 20 kl. 12 UTC till 20 kl. 17 UTC
Vind 18 kt från nordväst
Sikt 10 km eller mer
Få moln på en höjd av 1500 ft
Brutna moln på en höjd av 5000 ft
Temporärt
från 20 kl. 12 UTC till 20 kl. 17 UTC
Brutna moln på en höjd av 1400 ft
regnskurar
Temporärt
från 20 kl. 12 UTC till 20 kl. 17 UTC
Få moln på en höjd av 2000 ft, Cumulonimbus.

TAF: ENNE 201100Z 2012/2017 32018KT 9999 FEW015 BKN050 TEMPO 2012/2017 SHRA BKN014 TEMPO 2012/2017 FEW020CB

Aktuella väderrapporter och prognoser från 4000 flygplatser (METAR- och TAF-rapporter).

De tillgängliga stationerna syns som gula och röda prickar på kartan.

För musen över prickarna för att se namnen på stationerna.

Klicka sedan för att få väderrapporter och prognoser.

För att ändra kartan: Klicka på de gröna knapparna med ett svart kors på för att zooma in; den gröna knappen med ett streck på för att zooma ut; eller på de gröna pilarna för angränsande kartor.


METAR-TAF: